createdAt,value
2023-06-13T00:00:27.408Z,24.70
2023-06-13T00:02:54.976Z,24.70
2023-06-13T00:05:22.642Z,24.70
2023-06-13T00:07:50.994Z,24.70
2023-06-13T00:10:18.281Z,24.70
2023-06-13T00:12:50.680Z,24.70
2023-06-13T00:15:19.435Z,24.70
2023-06-13T00:17:49.345Z,24.70
2023-06-13T00:20:16.972Z,24.70
2023-06-13T00:22:46.380Z,24.70
2023-06-13T00:25:13.590Z,24.70
2023-06-13T00:27:40.733Z,24.70
2023-06-13T00:30:08.304Z,24.70
2023-06-13T00:32:36.003Z,24.70
2023-06-13T00:35:03.760Z,24.70
2023-06-13T00:37:35.648Z,24.70
2023-06-13T00:40:03.992Z,24.70
2023-06-13T00:42:33.219Z,24.60
2023-06-13T00:45:39.998Z,24.70
2023-06-13T00:48:08.923Z,24.60
2023-06-13T00:50:38.456Z,24.60
2023-06-13T00:53:12.613Z,24.70
2023-06-13T00:55:39.880Z,24.60
2023-06-13T00:58:08.699Z,24.60
2023-06-13T01:00:37.051Z,24.60
2023-06-13T01:03:08.688Z,24.60
2023-06-13T01:05:36.079Z,24.70
2023-06-13T01:08:07.059Z,24.60
2023-06-13T01:10:34.781Z,24.70
2023-06-13T01:13:17.702Z,24.70
2023-06-13T01:15:55.029Z,24.60
2023-06-13T01:18:26.119Z,24.60
2023-06-13T01:20:57.803Z,24.60
2023-06-13T01:23:24.801Z,24.60
2023-06-13T01:26:14.669Z,24.70
2023-06-13T01:28:46.162Z,24.60
2023-06-13T01:31:16.614Z,24.70
2023-06-13T01:33:45.026Z,24.60
2023-06-13T01:36:12.616Z,24.60
2023-06-13T01:38:40.787Z,24.60
2023-06-13T01:41:07.882Z,24.60
2023-06-13T01:43:34.850Z,24.60
2023-06-13T01:46:25.366Z,24.60
2023-06-13T01:49:25.742Z,24.60
2023-06-13T01:52:05.001Z,24.60
2023-06-13T01:54:37.053Z,24.60
2023-06-13T01:57:08.163Z,24.60
2023-06-13T01:59:39.867Z,24.60
2023-06-13T02:02:09.101Z,24.60
2023-06-13T02:04:45.016Z,24.60
2023-06-13T02:07:12.144Z,24.60
2023-06-13T02:09:39.114Z,24.60
2023-06-13T02:12:08.229Z,24.60
2023-06-13T02:14:37.970Z,24.60
2023-06-13T02:17:07.875Z,24.60
2023-06-13T02:19:36.542Z,24.60
2023-06-13T02:22:03.478Z,24.60
2023-06-13T02:24:31.189Z,24.60
2023-06-13T02:26:58.049Z,24.60
2023-06-13T02:29:26.488Z,24.60
2023-06-13T02:31:53.676Z,24.60
2023-06-13T02:34:20.724Z,24.60
2023-06-13T02:36:47.659Z,24.60
2023-06-13T02:39:14.690Z,24.60
2023-06-13T02:41:57.132Z,24.60
2023-06-13T02:44:25.828Z,24.60
2023-06-13T02:46:56.031Z,24.60
2023-06-13T02:49:23.966Z,24.60
2023-06-13T02:51:51.127Z,24.60
2023-06-13T02:54:19.794Z,24.60
2023-06-13T02:56:46.881Z,24.60
2023-06-13T02:59:14.963Z,24.60
2023-06-13T03:01:42.087Z,24.60
2023-06-13T03:04:09.050Z,24.60
2023-06-13T03:06:37.527Z,24.60
2023-06-13T03:09:05.591Z,24.60
2023-06-13T03:11:33.616Z,24.60
2023-06-13T03:14:00.998Z,24.60
2023-06-13T03:16:29.698Z,24.60
2023-06-13T03:18:58.147Z,24.60
2023-06-13T03:21:25.301Z,24.60
2023-06-13T03:23:52.233Z,24.60
2023-06-13T03:26:20.962Z,24.60
2023-06-13T03:28:47.951Z,24.60
2023-06-13T03:31:16.115Z,24.60
2023-06-13T03:33:43.140Z,24.60
2023-06-13T03:36:10.130Z,24.60
2023-06-13T03:38:37.285Z,24.60
2023-06-13T03:41:05.852Z,24.60
2023-06-13T03:43:34.552Z,24.60
2023-06-13T03:46:01.805Z,24.60
2023-06-13T03:48:29.027Z,24.60
2023-06-13T03:50:57.049Z,24.60
2023-06-13T03:53:24.024Z,24.60
2023-06-13T03:55:51.600Z,24.60
2023-06-13T03:58:22.635Z,24.60
2023-06-13T04:00:50.203Z,24.60
2023-06-13T04:03:17.284Z,24.60
2023-06-13T04:05:44.331Z,24.60
2023-06-13T04:08:11.809Z,24.60
2023-06-13T04:10:41.083Z,24.60
2023-06-13T04:13:08.156Z,24.60
2023-06-13T04:15:37.263Z,24.60
2023-06-13T04:18:04.578Z,24.60
2023-06-13T04:20:31.572Z,24.60
2023-06-13T04:22:58.512Z,24.60
2023-06-13T04:25:25.645Z,24.60
2023-06-13T04:27:54.485Z,24.60
2023-06-13T04:30:25.123Z,24.60
2023-06-13T04:32:54.076Z,24.60
2023-06-13T04:35:22.989Z,24.60
2023-06-13T04:37:50.630Z,24.60
2023-06-13T04:40:19.420Z,24.60
2023-06-13T04:42:53.418Z,24.60
2023-06-13T04:45:26.339Z,24.60
2023-06-13T04:47:58.649Z,24.60
2023-06-13T04:50:27.265Z,24.60
2023-06-13T04:52:55.951Z,24.60
2023-06-13T04:55:24.442Z,24.60
2023-06-13T04:57:51.509Z,24.60
2023-06-13T05:00:20.142Z,24.60
2023-06-13T05:02:47.620Z,24.60
2023-06-13T05:05:18.040Z,24.60
2023-06-13T05:07:45.908Z,24.60
2023-06-13T05:10:17.358Z,24.60
2023-06-13T05:12:45.665Z,24.60
2023-06-13T05:15:12.819Z,24.60
2023-06-13T05:17:40.378Z,24.60
2023-06-13T05:20:08.401Z,24.60
2023-06-13T05:22:35.395Z,24.60
2023-06-13T05:25:03.461Z,24.60
2023-06-13T05:27:30.501Z,24.60
2023-06-13T05:29:57.436Z,24.60
2023-06-13T05:32:24.571Z,24.60
2023-06-13T05:34:51.933Z,24.70
2023-06-13T05:37:19.767Z,24.70
2023-06-13T05:39:46.718Z,24.70
2023-06-13T05:42:13.741Z,24.70
2023-06-13T05:44:40.817Z,24.70
2023-06-13T05:47:07.905Z,24.70
2023-06-13T05:49:37.074Z,24.70
2023-06-13T05:52:04.150Z,24.70
2023-06-13T05:54:32.018Z,24.70
2023-06-13T05:57:03.033Z,24.70
2023-06-13T05:59:29.985Z,24.70
2023-06-13T06:01:56.968Z,24.80
2023-06-13T06:04:24.362Z,24.80
2023-06-13T06:06:55.060Z,24.80
2023-06-13T06:09:24.600Z,24.80
2023-06-13T06:11:52.924Z,24.80
2023-06-13T06:14:20.626Z,24.80
2023-06-13T06:16:49.224Z,24.90
2023-06-13T06:19:16.136Z,24.90
2023-06-13T06:21:43.135Z,24.90
2023-06-13T06:24:10.248Z,24.90
2023-06-13T06:26:37.757Z,24.90
2023-06-13T06:29:04.908Z,24.90
2023-06-13T06:31:31.935Z,24.90
2023-06-13T06:33:59.006Z,24.90
2023-06-13T06:36:26.126Z,24.90
2023-06-13T06:38:53.301Z,24.90
2023-06-13T06:41:20.356Z,24.90
2023-06-13T06:43:47.620Z,24.90
2023-06-13T06:46:14.650Z,24.90
2023-06-13T06:48:41.614Z,24.90
2023-06-13T06:51:09.058Z,24.90
2023-06-13T06:53:38.389Z,24.90
2023-06-13T06:56:05.408Z,24.90
2023-06-13T06:58:32.399Z,24.90
2023-06-13T07:01:05.910Z,24.90
2023-06-13T07:03:32.953Z,24.90
2023-06-13T07:06:30.417Z,24.90
2023-06-13T07:09:17.638Z,24.90
2023-06-13T07:12:27.483Z,24.90
2023-06-13T07:14:56.030Z,24.90
2023-06-13T07:17:23.038Z,24.90
2023-06-13T07:19:50.539Z,24.90
2023-06-13T07:22:17.485Z,24.90
2023-06-13T07:24:44.769Z,24.90
2023-06-13T07:27:12.290Z,24.90
2023-06-13T07:29:39.233Z,24.90
2023-06-13T07:32:06.983Z,24.90
2023-06-13T07:34:54.937Z,24.90
2023-06-13T07:37:21.350Z,24.90
2023-06-13T07:39:50.979Z,25.00
2023-06-13T07:42:18.155Z,24.90
2023-06-13T07:44:45.246Z,24.90
2023-06-13T07:47:12.259Z,24.90
2023-06-13T07:49:39.143Z,25.00
2023-06-13T07:52:07.413Z,24.90
2023-06-13T07:54:34.393Z,24.90
2023-06-13T07:57:03.924Z,25.00
2023-06-13T07:59:34.756Z,25.00
2023-06-13T08:02:02.068Z,25.00
2023-06-13T08:04:43.818Z,25.00
2023-06-13T08:07:16.783Z,25.00
2023-06-13T08:09:44.644Z,25.00
2023-06-13T08:12:12.463Z,25.00
2023-06-13T08:14:39.399Z,25.00
2023-06-13T08:17:07.998Z,25.00
2023-06-13T08:19:34.874Z,25.00
2023-06-13T08:22:02.097Z,25.10
2023-06-13T08:24:29.105Z,25.00
2023-06-13T08:26:56.515Z,25.00
2023-06-13T08:29:24.794Z,25.00
2023-06-13T08:31:52.774Z,25.00
2023-06-13T08:34:21.618Z,25.00
2023-06-13T08:36:51.023Z,25.00
2023-06-13T08:39:19.457Z,25.10
2023-06-13T08:41:46.871Z,25.10
2023-06-13T08:44:13.829Z,25.10
2023-06-13T08:46:43.183Z,25.10
2023-06-13T08:49:12.234Z,25.10
2023-06-13T08:51:39.352Z,25.10
2023-06-13T08:54:09.165Z,25.10
2023-06-13T08:56:44.606Z,25.10
2023-06-13T08:59:24.479Z,25.10
2023-06-13T09:01:51.865Z,25.10
2023-06-13T09:04:19.431Z,25.10
2023-06-13T09:06:47.960Z,25.10
2023-06-13T09:09:18.021Z,25.10
2023-06-13T09:11:49.196Z,25.10
2023-06-13T09:14:19.273Z,25.10
2023-06-13T09:16:47.515Z,25.20
2023-06-13T09:19:18.647Z,25.10
2023-06-13T09:21:46.365Z,25.10
2023-06-13T09:24:14.874Z,25.10
2023-06-13T09:26:41.917Z,25.10
2023-06-13T09:29:16.309Z,25.10
2023-06-13T09:31:51.491Z,25.10
2023-06-13T09:34:18.566Z,25.10
2023-06-13T09:36:46.550Z,25.10
2023-06-13T09:39:13.535Z,25.10
2023-06-13T09:41:42.331Z,25.10
2023-06-13T09:44:09.669Z,25.10
2023-06-13T09:46:38.657Z,25.10
2023-06-13T09:49:07.522Z,25.10
2023-06-13T09:51:34.779Z,25.10
2023-06-13T09:54:02.427Z,25.10
2023-06-13T09:56:29.616Z,25.20
2023-06-13T09:58:57.115Z,25.20
2023-06-13T10:01:24.975Z,25.20
2023-06-13T10:03:53.349Z,25.10
2023-06-13T10:06:21.242Z,25.10
2023-06-13T10:08:48.543Z,25.10
2023-06-13T10:11:22.980Z,25.10
2023-06-13T10:14:05.864Z,25.10
2023-06-13T10:16:42.097Z,25.20
2023-06-13T10:19:22.385Z,25.20
2023-06-13T10:21:52.253Z,25.20
2023-06-13T10:24:22.073Z,25.20
2023-06-13T10:26:56.426Z,25.10
2023-06-13T10:29:41.833Z,25.20
2023-06-13T10:32:16.470Z,25.20
2023-06-13T10:35:14.729Z,25.20
2023-06-13T10:38:15.883Z,25.20
2023-06-13T10:41:28.193Z,25.20
2023-06-13T10:44:03.165Z,25.20
2023-06-13T10:46:30.576Z,25.20
2023-06-13T10:49:01.663Z,25.10
2023-06-13T10:51:31.903Z,25.20
2023-06-13T10:54:08.915Z,25.20
2023-06-13T10:56:40.738Z,25.20
2023-06-13T10:59:13.304Z,25.20
2023-06-13T11:01:41.735Z,25.20
2023-06-13T11:04:17.341Z,25.20
2023-06-13T11:06:45.833Z,25.20
2023-06-13T11:09:26.743Z,25.20
2023-06-13T11:11:54.619Z,25.20
2023-06-13T11:14:38.559Z,25.20
2023-06-13T11:17:08.201Z,25.20
2023-06-13T11:19:37.365Z,25.20
2023-06-13T11:22:15.036Z,25.20
2023-06-13T11:24:54.563Z,25.20
2023-06-13T11:27:21.913Z,25.20
2023-06-13T11:29:49.748Z,25.20
2023-06-13T11:32:18.050Z,25.20
2023-06-13T11:35:27.812Z,25.20
2023-06-13T11:38:38.470Z,25.20
2023-06-13T11:41:18.712Z,25.20
2023-06-13T11:43:46.280Z,25.20
2023-06-13T11:46:14.518Z,25.20
2023-06-13T11:51:15.743Z,25.20
2023-06-13T11:53:55.790Z,25.20
2023-06-13T11:56:27.693Z,25.20
2023-06-13T11:58:57.606Z,25.20
2023-06-13T12:01:28.672Z,25.20
2023-06-13T12:03:59.620Z,25.20
2023-06-13T12:06:27.257Z,25.20
2023-06-13T12:08:54.403Z,25.20
2023-06-13T12:11:26.220Z,25.20
2023-06-13T12:13:58.656Z,25.20
2023-06-13T12:16:30.904Z,25.20
2023-06-13T12:18:58.591Z,25.20
2023-06-13T12:21:38.815Z,25.20
2023-06-13T12:24:08.223Z,25.20
2023-06-13T12:26:37.081Z,25.20
2023-06-13T12:29:12.971Z,25.20
2023-06-13T12:31:44.863Z,25.20
2023-06-13T12:34:28.434Z,25.20
2023-06-13T12:37:08.419Z,25.20
2023-06-13T12:39:36.513Z,25.20
2023-06-13T12:42:07.793Z,25.20
2023-06-13T12:44:36.443Z,25.20
2023-06-13T12:47:05.479Z,25.20
2023-06-13T12:49:39.630Z,25.20
2023-06-13T12:52:16.856Z,25.20
2023-06-13T12:54:44.168Z,25.20
2023-06-13T12:57:14.386Z,25.20
2023-06-13T12:59:43.886Z,25.20
2023-06-13T13:02:17.468Z,25.20
2023-06-13T13:07:32.319Z,25.20
2023-06-13T13:10:00.705Z,25.20
2023-06-13T13:12:27.767Z,25.20
2023-06-13T13:14:54.915Z,25.20
2023-06-13T13:17:22.037Z,25.20
2023-06-13T13:19:54.187Z,25.20
2023-06-13T13:22:24.329Z,25.20
2023-06-13T13:24:53.783Z,25.20
2023-06-13T13:27:20.843Z,25.20
2023-06-13T13:29:49.231Z,25.20
2023-06-13T13:32:16.213Z,25.20
2023-06-13T13:34:44.165Z,25.20
2023-06-13T13:37:11.692Z,25.20
2023-06-13T13:39:38.568Z,25.20
2023-06-13T13:42:14.157Z,25.20
2023-06-13T13:44:50.981Z,25.20
2023-06-13T13:47:17.892Z,25.20
2023-06-13T13:49:44.872Z,25.20
2023-06-13T13:52:12.200Z,25.20
2023-06-13T13:54:39.034Z,25.20
2023-06-13T13:57:06.343Z,25.20
2023-06-13T13:59:33.386Z,25.20
2023-06-13T14:02:01.434Z,25.20
2023-06-13T14:04:32.038Z,25.20
2023-06-13T14:06:59.290Z,25.20
2023-06-13T14:09:26.482Z,25.20
2023-06-13T14:11:53.399Z,25.20
2023-06-13T14:14:21.430Z,25.20
2023-06-13T14:16:48.429Z,25.20
2023-06-13T14:19:15.876Z,25.20
2023-06-13T14:21:44.210Z,25.20
2023-06-13T14:24:12.571Z,25.20
2023-06-13T14:26:39.449Z,25.20
2023-06-13T14:29:07.655Z,25.20
2023-06-13T14:31:34.675Z,25.20
2023-06-13T14:34:01.708Z,25.20
2023-06-13T14:36:30.065Z,25.20
2023-06-13T14:38:57.349Z,25.20
2023-06-13T14:41:24.457Z,25.20
2023-06-13T14:43:51.554Z,25.20
2023-06-13T14:46:18.520Z,25.20
2023-06-13T14:48:45.378Z,25.20
2023-06-13T14:51:12.295Z,25.20
2023-06-13T14:53:39.354Z,25.20
2023-06-13T14:56:08.577Z,25.30
2023-06-13T14:58:35.744Z,25.20
2023-06-13T15:01:05.091Z,25.20
2023-06-13T15:03:33.674Z,25.20
2023-06-13T15:06:01.071Z,25.20
2023-06-13T15:08:28.150Z,25.30
2023-06-13T15:10:55.048Z,25.20
2023-06-13T15:13:22.398Z,25.30
2023-06-13T15:15:54.385Z,25.20
2023-06-13T15:18:22.078Z,25.20
2023-06-13T15:20:49.978Z,25.30
2023-06-13T15:23:17.613Z,25.20
2023-06-13T15:25:45.962Z,25.30
2023-06-13T15:28:12.944Z,25.20
2023-06-13T15:30:41.673Z,25.20
2023-06-13T15:33:09.059Z,25.20
2023-06-13T15:35:38.662Z,25.20
2023-06-13T15:38:06.334Z,25.20
2023-06-13T15:40:33.161Z,25.20
2023-06-13T15:43:00.062Z,25.20
2023-06-13T15:45:27.207Z,25.30
2023-06-13T15:47:59.283Z,25.20
2023-06-13T15:50:36.600Z,25.20
2023-06-13T15:53:05.474Z,25.20
2023-06-13T15:55:36.372Z,25.20
2023-06-13T15:58:04.143Z,25.30
2023-06-13T16:00:33.749Z,25.20
2023-06-13T16:06:46.663Z,25.20
2023-06-13T16:09:17.066Z,25.20
2023-06-13T16:11:43.939Z,25.20
2023-06-13T16:14:12.938Z,25.20
2023-06-13T16:16:47.483Z,25.20
2023-06-13T16:19:15.705Z,25.20
2023-06-13T16:21:43.553Z,25.20
2023-06-13T16:24:12.224Z,25.20
2023-06-13T16:26:39.721Z,25.30
2023-06-13T16:29:06.748Z,25.20
2023-06-13T16:31:33.889Z,25.30
2023-06-13T16:34:02.173Z,25.20
2023-06-13T16:36:29.074Z,25.30
2023-06-13T16:38:57.975Z,25.20
2023-06-13T16:41:25.987Z,25.20
2023-06-13T16:43:52.841Z,25.30
2023-06-13T16:46:19.931Z,25.20
2023-06-13T16:48:46.876Z,25.20
2023-06-13T16:51:14.752Z,25.20
2023-06-13T16:53:41.581Z,25.20
2023-06-13T16:56:08.616Z,25.20
2023-06-13T16:58:35.912Z,25.20
2023-06-13T17:01:02.844Z,25.20
2023-06-13T17:03:29.892Z,25.20
2023-06-13T17:05:56.852Z,25.30
2023-06-13T17:08:24.264Z,25.20
2023-06-13T17:10:51.077Z,25.30
2023-06-13T17:13:18.150Z,25.20
2023-06-13T17:15:48.067Z,25.20
2023-06-13T17:18:15.295Z,25.20
2023-06-13T17:20:46.483Z,25.20
2023-06-13T17:23:13.503Z,25.20
2023-06-13T17:25:43.151Z,25.20
2023-06-13T17:28:10.025Z,25.30
2023-06-13T17:30:39.812Z,25.20
2023-06-13T17:33:07.918Z,25.30
2023-06-13T17:35:42.414Z,25.30
2023-06-13T17:38:09.732Z,25.30
2023-06-13T17:40:36.676Z,25.20
2023-06-13T17:43:04.776Z,25.20
2023-06-13T17:45:31.820Z,25.20
2023-06-13T17:47:58.764Z,25.20
2023-06-13T17:50:25.912Z,25.20
2023-06-13T17:52:54.205Z,25.20
2023-06-13T17:55:22.304Z,25.20
2023-06-13T17:57:49.485Z,25.20
2023-06-13T18:00:18.129Z,25.20
2023-06-13T18:02:46.147Z,25.20
2023-06-13T18:05:13.275Z,25.20
2023-06-13T18:07:42.530Z,25.20
2023-06-13T18:10:09.599Z,25.20
2023-06-13T18:12:39.762Z,25.20
2023-06-13T18:15:07.477Z,25.20
2023-06-13T18:17:34.526Z,25.20
2023-06-13T18:20:02.726Z,25.20
2023-06-13T18:22:29.873Z,25.20
2023-06-13T18:24:56.884Z,25.20
2023-06-13T18:27:24.288Z,25.20
2023-06-13T18:29:51.172Z,25.20
2023-06-13T18:32:18.124Z,25.20
2023-06-13T18:34:45.100Z,25.20
2023-06-13T18:37:12.711Z,25.20
2023-06-13T18:39:40.981Z,25.20
2023-06-13T18:42:08.231Z,25.20
2023-06-13T18:44:35.487Z,25.20
2023-06-13T18:47:02.516Z,25.20
2023-06-13T18:49:29.451Z,25.20
2023-06-13T18:51:56.975Z,25.20
2023-06-13T18:54:24.303Z,25.20
2023-06-13T18:56:51.605Z,25.20
2023-06-13T18:59:19.625Z,25.20
2023-06-13T19:01:49.814Z,25.20
2023-06-13T19:04:17.414Z,25.20
2023-06-13T19:06:44.631Z,25.20
2023-06-13T19:09:13.244Z,25.20
2023-06-13T19:11:40.136Z,25.20
2023-06-13T19:14:07.254Z,25.20
2023-06-13T19:16:35.120Z,25.20
2023-06-13T19:19:02.358Z,25.20
2023-06-13T19:21:29.743Z,25.20
2023-06-13T19:23:56.994Z,25.20
2023-06-13T19:26:26.215Z,25.20
2023-06-13T19:28:53.674Z,25.20
2023-06-13T19:31:21.893Z,25.20
2023-06-13T19:33:49.383Z,25.20
2023-06-13T19:36:18.611Z,25.20
2023-06-13T19:38:45.854Z,25.20
2023-06-13T19:41:12.874Z,25.20
2023-06-13T19:43:39.799Z,25.20
2023-06-13T19:46:07.475Z,25.20
2023-06-13T19:48:34.616Z,25.20
2023-06-13T19:51:17.542Z,25.20
2023-06-13T19:53:46.784Z,25.20
2023-06-13T19:56:14.031Z,25.20
2023-06-13T19:58:41.349Z,25.20
2023-06-13T20:01:08.607Z,25.20
2023-06-13T20:03:35.645Z,25.20
2023-06-13T20:06:03.142Z,25.20
2023-06-13T20:08:30.035Z,25.20
2023-06-13T20:10:57.089Z,25.10
2023-06-13T20:13:23.990Z,25.10
2023-06-13T20:15:53.884Z,25.10
2023-06-13T20:18:22.906Z,25.10
2023-06-13T20:20:51.681Z,25.10
2023-06-13T20:23:18.881Z,25.10
2023-06-13T20:25:46.395Z,25.20
2023-06-13T20:28:17.708Z,25.10
2023-06-13T20:30:46.820Z,25.10
2023-06-13T20:33:13.907Z,25.10
2023-06-13T20:36:28.704Z,25.10
2023-06-13T20:38:55.830Z,25.10
2023-06-13T20:41:28.715Z,25.10
2023-06-13T20:43:55.770Z,25.10
2023-06-13T20:46:22.880Z,25.10
2023-06-13T20:48:49.900Z,25.10
2023-06-13T20:51:17.119Z,25.10
2023-06-13T20:53:45.274Z,25.10
2023-06-13T20:56:12.422Z,25.10
2023-06-13T20:58:40.620Z,25.10
2023-06-13T21:01:08.145Z,25.00
2023-06-13T21:03:39.636Z,25.00
2023-06-13T21:06:09.940Z,25.10
2023-06-13T21:08:37.387Z,25.00
2023-06-13T21:11:04.410Z,25.00
2023-06-13T21:13:31.467Z,25.00
2023-06-13T21:16:00.187Z,25.00
2023-06-13T21:18:27.408Z,25.00
2023-06-13T21:20:58.415Z,25.00
2023-06-13T21:23:27.008Z,25.00
2023-06-13T21:25:53.994Z,25.00
2023-06-13T21:28:20.959Z,25.00
2023-06-13T21:30:47.842Z,25.00
2023-06-13T21:33:19.312Z,25.00
2023-06-13T21:35:46.778Z,25.00
2023-06-13T21:38:13.779Z,25.00
2023-06-13T21:40:41.996Z,25.00
2023-06-13T21:43:08.932Z,25.00
2023-06-13T21:45:35.873Z,25.00
2023-06-13T21:48:03.088Z,25.00
2023-06-13T21:50:30.540Z,25.00
2023-06-13T21:52:58.085Z,25.00
2023-06-13T21:55:25.119Z,25.00
2023-06-13T21:57:52.162Z,25.00
2023-06-13T22:00:25.017Z,25.00
2023-06-13T22:02:53.680Z,25.00
2023-06-13T22:05:22.130Z,25.00
2023-06-13T22:07:49.743Z,25.00
2023-06-13T22:10:18.586Z,25.00
2023-06-13T22:12:51.286Z,25.00
2023-06-13T22:15:18.933Z,25.00
2023-06-13T22:17:46.970Z,25.00
2023-06-13T22:20:22.512Z,25.00
2023-06-13T22:22:51.438Z,25.00
2023-06-13T22:25:18.821Z,25.00
2023-06-13T22:27:46.709Z,25.00
2023-06-13T22:30:15.200Z,25.00
2023-06-13T22:32:42.797Z,25.00
2023-06-13T22:35:13.552Z,25.00
2023-06-13T22:37:41.404Z,25.00
2023-06-13T22:40:10.455Z,24.90
2023-06-13T22:42:38.156Z,24.90
2023-06-13T22:45:13.886Z,25.00
2023-06-13T22:47:41.185Z,25.00
2023-06-13T22:50:09.540Z,25.00
2023-06-13T22:52:36.963Z,24.90
2023-06-13T22:55:04.605Z,25.00
2023-06-13T22:57:31.879Z,24.90
2023-06-13T22:59:59.307Z,25.00
2023-06-13T23:02:26.399Z,24.90
2023-06-13T23:04:55.102Z,24.90
2023-06-13T23:07:23.559Z,24.90
2023-06-13T23:09:50.616Z,24.90
2023-06-13T23:12:17.788Z,24.90
2023-06-13T23:14:44.713Z,24.90
2023-06-13T23:17:13.445Z,24.90
2023-06-13T23:19:41.290Z,24.90
2023-06-13T23:22:09.262Z,24.90
2023-06-13T23:24:37.280Z,24.90
2023-06-13T23:27:08.859Z,24.90
2023-06-13T23:29:40.190Z,24.90
2023-06-13T23:32:09.281Z,24.90
2023-06-13T23:34:37.479Z,24.90
2023-06-13T23:37:04.631Z,25.00
2023-06-13T23:39:38.361Z,24.90
2023-06-13T23:42:08.118Z,24.90
2023-06-13T23:44:35.156Z,24.90
2023-06-13T23:47:02.261Z,25.00
2023-06-13T23:49:29.330Z,24.90
2023-06-13T23:51:56.250Z,24.90
2023-06-13T23:54:23.246Z,24.90
2023-06-13T23:56:50.325Z,24.90
2023-06-13T23:59:17.360Z,24.90
